Time;durP1;ratioP1;P1;durP2;ratioP2;P2;SDS_P1;SDS_P2;PMS_P1;PMS_P2;Temp;Humidity;BMP_temperature;BMP_pressure;BME280_temperature;BME280_humidity;BME280_pressure;Samples;Min_cycle;Max_cycle;Signal;HPM_P1;HPM_P2
2023/09/25 00:00:33;;;;;;;3.17;2.27;;;16.90;52.30;;;;;;5025366;28;20216;-48
2023/09/25 00:02:59;;;;;;;4.03;2.77;;;17.00;52.10;;;;;;5026728;28;20877;-44
2023/09/25 00:05:26;;;;;;;4.00;2.80;;;16.90;52.30;;;;;;5032739;28;20447;-50
2023/09/25 00:07:52;;;;;;;3.27;2.70;;;16.80;52.40;;;;;;5039337;28;20467;-46
2023/09/25 00:10:18;;;;;;;4.30;2.60;;;16.80;52.10;;;;;;5035620;28;20443;-47
2023/09/25 00:12:44;;;;;;;3.67;2.37;;;16.70;52.30;;;;;;5033319;28;20436;-50
2023/09/25 00:15:10;;;;;;;3.33;2.67;;;16.70;52.40;;;;;;5032916;28;20227;-48
2023/09/25 00:17:36;;;;;;;3.10;2.40;;;16.60;52.40;;;;;;5029811;28;20535;-45
2023/09/25 00:20:04;;;;;;;4.23;2.90;;;16.00;53.50;;;;;;5032968;28;20443;-48
2023/09/25 00:22:30;;;;;;;4.13;2.90;;;15.80;54.70;;;;;;5029217;28;20569;-46
2023/09/25 00:24:56;;;;;;;3.80;2.97;;;15.60;54.80;;;;;;5030377;28;20494;-50
2023/09/25 00:27:23;;;;;;;3.07;2.43;;;15.50;55.20;;;;;;5030996;28;20973;-51
2023/09/25 00:29:49;;;;;;;5.20;2.73;;;15.70;55.00;;;;;;5040615;28;20957;-46
2023/09/25 00:32:14;;;;;;;2.97;2.20;;;15.90;54.60;;;;;;5044107;28;20530;-46
2023/09/25 00:34:40;;;;;;;6.07;2.47;;;15.90;54.20;;;;;;5040689;28;20224;-49
2023/09/25 00:37:06;;;;;;;2.90;2.57;;;16.00;54.30;;;;;;5048929;28;20201;-46
2023/09/25 00:39:31;;;;;;;4.20;2.63;;;16.10;54.30;;;;;;5041220;28;20246;-45
2023/09/25 00:41:58;;;;;;;4.80;2.60;;;16.20;53.80;;;;;;5035240;28;20267;-46
2023/09/25 00:44:24;;;;;;;3.43;2.70;;;16.20;54.00;;;;;;5042463;28;20236;-47
2023/09/25 00:46:50;;;;;;;2.70;2.23;;;16.30;54.30;;;;;;5049751;28;20431;-45
2023/09/25 00:49:15;;;;;;;3.20;2.33;;;16.40;53.00;;;;;;5042905;28;20268;-47
2023/09/25 00:51:42;;;;;;;2.90;2.57;;;16.50;52.90;;;;;;5034116;28;20535;-48
2023/09/25 00:54:08;;;;;;;2.70;2.33;;;16.60;52.60;;;;;;5037756;28;20185;-46
2023/09/25 00:56:34;;;;;;;4.30;2.00;;;16.70;52.40;;;;;;5038789;28;20498;-47
2023/09/25 00:59:00;;;;;;;2.80;2.53;;;16.70;52.20;;;;;;5030482;28;20197;-46
2023/09/25 01:01:26;;;;;;;3.20;2.60;;;16.70;52.10;;;;;;5031139;28;20444;-45
2023/09/25 01:03:52;;;;;;;3.30;1.90;;;16.70;51.90;;;;;;5027753;28;20649;-48
2023/09/25 01:06:18;;;;;;;3.23;2.63;;;16.70;51.80;;;;;;5023701;28;20451;-46
2023/09/25 01:08:43;;;;;;;3.20;2.50;;;16.70;51.90;;;;;;5037377;28;20199;-46
2023/09/25 01:11:10;;;;;;;3.10;2.27;;;16.70;52.00;;;;;;5039822;28;20210;-45
2023/09/25 01:13:35;;;;;;;3.53;2.43;;;16.90;51.60;;;;;;5031649;28;20549;-47
2023/09/25 01:16:02;;;;;;;2.80;2.00;;;16.90;51.20;;;;;;5022899;28;20480;-46
2023/09/25 01:18:28;;;;;;;2.67;2.30;;;17.00;51.20;;;;;;5023662;28;20189;-46
2023/09/25 01:20:53;;;;;;;3.77;2.40;;;17.10;50.70;;;;;;5021771;28;20733;-49
2023/09/25 01:23:19;;;;;;;3.17;2.20;;;17.10;50.50;;;;;;5021921;28;20243;-46
2023/09/25 01:25:45;;;;;;;2.83;2.30;;;17.10;50.60;;;;;;5027997;28;20217;-46
2023/09/25 01:28:10;;;;;;;3.13;2.47;;;17.00;50.70;;;;;;5033259;28;20189;-46
2023/09/25 01:30:36;;;;;;;2.17;1.97;;;17.10;50.40;;;;;;5041247;28;20199;-45
2023/09/25 01:33:01;;;;;;;2.87;2.27;;;17.10;50.30;;;;;;5025248;28;20281;-46
2023/09/25 01:35:27;;;;;;;3.30;2.03;;;17.20;50.80;;;;;;5027889;28;20235;-46
2023/09/25 01:38:00;;;;;;;3.00;2.20;;;17.20;50.00;;;;;;5023527;28;20197;-45
2023/09/25 01:40:26;;;;;;;2.20;1.67;;;17.30;50.00;;;;;;5023299;28;20193;-46
2023/09/25 01:42:52;;;;;;;2.67;2.40;;;17.30;50.00;;;;;;5021969;28;20439;-47
2023/09/25 01:45:19;;;;;;;4.13;2.50;;;17.20;49.90;;;;;;5024976;28;20493;-47
2023/09/25 01:47:50;;;;;;;4.60;2.70;;;17.10;49.90;;;;;;5025498;28;20239;-45
2023/09/25 01:50:24;;;;;;;3.80;2.37;;;17.10;49.80;;;;;;5031333;28;20536;-49
2023/09/25 01:53:00;;;;;;;3.10;2.40;;;17.00;49.90;;;;;;5022723;28;21254;-46
2023/09/25 01:55:31;;;;;;;4.73;2.63;;;17.00;50.00;;;;;;5023906;28;20578;-49
2023/09/25 01:57:57;;;;;;;2.63;2.43;;;16.90;50.00;;;;;;5029227;28;20444;-45
2023/09/25 02:00:23;;;;;;;2.67;2.27;;;16.80;50.10;;;;;;5022532;28;20446;-47
2023/09/25 02:02:48;;;;;;;3.37;2.33;;;16.80;50.10;;;;;;5022280;28;20272;-51
2023/09/25 02:05:14;;;;;;;3.83;3.10;;;16.70;50.20;;;;;;5028742;28;20222;-48
2023/09/25 02:07:40;;;;;;;3.70;2.93;;;16.70;50.30;;;;;;5029966;28;20247;-45
2023/09/25 02:10:06;;;;;;;2.23;2.03;;;16.60;50.30;;;;;;5035985;28;20201;-50
2023/09/25 02:12:32;;;;;;;4.23;2.50;;;16.60;50.40;;;;;;5036832;28;20942;-47
2023/09/25 02:15:03;;;;;;;4.77;2.47;;;16.60;51.00;;;;;;5043409;28;20532;-50
2023/09/25 02:17:29;;;;;;;3.90;2.60;;;16.60;50.40;;;;;;5036123;28;20644;-50
2023/09/25 02:19:56;;;;;;;3.40;2.13;;;16.50;50.50;;;;;;5032145;28;20451;-47
2023/09/25 02:22:22;;;;;;;3.53;2.73;;;16.50;50.50;;;;;;5035662;28;20254;-45
2023/09/25 02:24:47;;;;;;;2.90;2.47;;;16.40;50.50;;;;;;5032289;28;20446;-47
2023/09/25 02:27:14;;;;;;;4.03;2.50;;;16.40;50.70;;;;;;5034375;28;20197;-48
2023/09/25 02:29:39;;;;;;;2.33;2.13;;;16.30;51.00;;;;;;5042905;28;20215;-50
2023/09/25 02:32:05;;;;;;;3.93;2.40;;;16.30;51.10;;;;;;5038833;28;20432;-51
2023/09/25 02:34:30;;;;;;;3.10;2.60;;;16.30;50.90;;;;;;5035283;28;20193;-47
2023/09/25 02:36:56;;;;;;;3.40;2.77;;;16.30;51.00;;;;;;5031095;28;20229;-49
2023/09/25 02:39:21;;;;;;;4.73;2.30;;;16.20;51.10;;;;;;5030173;28;20205;-51
2023/09/25 02:41:47;;;;;;;3.97;2.80;;;16.20;51.50;;;;;;5023748;28;20290;-49
2023/09/25 02:44:12;;;;;;;3.10;2.20;;;16.20;51.60;;;;;;5024363;28;20589;-49
2023/09/25 02:46:38;;;;;;;2.30;2.00;;;16.20;51.50;;;;;;5039325;28;20197;-50
2023/09/25 02:49:04;;;;;;;4.00;2.63;;;16.20;51.50;;;;;;5026467;28;20205;-49
2023/09/25 02:51:30;;;;;;;2.60;2.40;;;16.20;51.40;;;;;;5022321;28;20543;-48
2023/09/25 02:53:57;;;;;;;3.50;2.70;;;16.30;51.40;;;;;;5024608;28;20190;-48
2023/09/25 02:56:23;;;;;;;3.17;2.60;;;16.20;51.30;;;;;;5027010;28;20319;-49
2023/09/25 02:58:48;;;;;;;3.37;2.43;;;16.20;51.60;;;;;;5036903;28;20522;-50
2023/09/25 03:01:14;;;;;;;3.03;2.30;;;16.10;51.60;;;;;;5025968;28;20197;-48
2023/09/25 03:03:40;;;;;;;3.77;2.63;;;16.10;51.30;;;;;;5029125;28;20676;-46
2023/09/25 03:06:06;;;;;;;3.50;2.10;;;16.10;51.20;;;;;;5030959;28;20247;-50
2023/09/25 03:08:31;;;;;;;3.13;2.43;;;16.00;51.10;;;;;;5033869;28;20834;-48
2023/09/25 03:10:57;;;;;;;2.83;2.10;;;16.00;51.30;;;;;;5039660;28;20269;-48
2023/09/25 03:13:23;;;;;;;3.00;2.50;;;15.80;51.40;;;;;;5027476;28;20255;-49
2023/09/25 03:15:49;;;;;;;3.20;2.10;;;15.80;51.60;;;;;;5027657;28;20233;-49
2023/09/25 03:18:16;;;;;;;2.70;2.47;;;15.70;51.90;;;;;;5026066;28;20444;-50
2023/09/25 03:20:41;;;;;;;3.50;2.73;;;15.60;52.00;;;;;;5035820;28;20201;-48
2023/09/25 03:23:07;;;;;;;4.93;3.07;;;15.60;52.10;;;;;;5028873;28;20443;-49
2023/09/25 03:25:37;;;;;;;3.13;2.70;;;15.60;52.20;;;;;;5027181;28;20193;-49
2023/09/25 03:28:03;;;;;;;4.37;2.50;;;15.60;52.10;;;;;;5026185;28;20189;-51
2023/09/25 03:30:29;;;;;;;2.63;2.37;;;15.50;52.00;;;;;;5025992;28;20440;-46
2023/09/25 03:32:55;;;;;;;2.40;2.20;;;15.50;52.10;;;;;;5026392;28;20452;-49
2023/09/25 03:35:24;;;;;;;2.70;2.17;;;15.40;52.20;;;;;;5030696;28;20491;-51
2023/09/25 03:37:50;;;;;;;3.80;3.17;;;15.40;52.20;;;;;;5027529;28;20197;-50
2023/09/25 03:40:15;;;;;;;2.60;2.40;;;15.40;52.20;;;;;;5026487;28;20439;-48
2023/09/25 03:42:41;;;;;;;3.53;2.37;;;15.30;52.70;;;;;;5026258;28;20640;-48
2023/09/25 03:45:08;;;;;;;2.80;2.43;;;15.30;52.10;;;;;;5025371;28;20700;-50
2023/09/25 03:47:35;;;;;;;2.40;2.20;;;15.30;52.10;;;;;;5027887;28;20475;-46
2023/09/25 03:50:02;;;;;;;4.30;2.97;;;15.20;52.20;;;;;;5025748;28;20523;-48
2023/09/25 03:52:28;;;;;;;2.43;2.23;;;15.20;52.30;;;;;;5024837;28;20992;-47
2023/09/25 03:54:54;;;;;;;2.60;2.23;;;15.10;52.20;;;;;;5033129;28;20499;-45
2023/09/25 03:57:20;;;;;;;2.93;2.50;;;15.10;52.40;;;;;;5034635;28;20496;-45
2023/09/25 03:59:45;;;;;;;2.43;2.10;;;15.00;52.60;;;;;;5027843;28;20338;-44
2023/09/25 04:02:11;;;;;;;3.57;2.33;;;14.90;52.80;;;;;;5037926;28;20201;-43
2023/09/25 04:04:36;;;;;;;3.20;2.67;;;14.90;52.90;;;;;;5029044;28;20205;-46
2023/09/25 04:07:02;;;;;;;2.60;2.30;;;14.90;53.00;;;;;;5031804;28;20275;-44
2023/09/25 04:09:27;;;;;;;4.70;2.47;;;14.90;53.10;;;;;;5036838;28;20269;-43
2023/09/25 04:11:53;;;;;;;2.40;2.03;;;14.80;53.10;;;;;;5036796;28;20221;-45
2023/09/25 04:14:19;;;;;;;4.40;2.80;;;14.80;53.10;;;;;;5041606;28;20193;-43
2023/09/25 04:16:45;;;;;;;2.90;2.40;;;14.80;53.30;;;;;;5032185;28;20304;-45
2023/09/25 04:19:12;;;;;;;3.63;2.50;;;14.80;53.30;;;;;;5037468;28;20196;-44
2023/09/25 04:21:38;;;;;;;3.00;2.40;;;14.80;53.20;;;;;;5035731;28;20443;-46
2023/09/25 04:24:04;;;;;;;3.77;2.73;;;14.80;53.90;;;;;;5034012;28;20446;-48
2023/09/25 04:26:29;;;;;;;3.30;2.60;;;14.70;53.00;;;;;;5032077;28;20225;-46
2023/09/25 04:28:55;;;;;;;3.13;2.70;;;14.70;53.20;;;;;;5046885;28;20202;-46
2023/09/25 04:31:21;;;;;;;3.83;2.50;;;14.70;52.90;;;;;;5045317;28;20189;-45
2023/09/25 04:33:46;;;;;;;3.70;3.07;;;14.60;53.00;;;;;;5048101;28;20205;-44
2023/09/25 04:36:12;;;;;;;2.07;1.70;;;14.50;52.80;;;;;;5037952;28;20239;-45
2023/09/25 04:38:38;;;;;;;2.60;2.40;;;14.50;52.80;;;;;;5040619;28;20247;-45
2023/09/25 04:41:04;;;;;;;3.77;3.07;;;14.40;53.00;;;;;;5044182;28;20188;-44
2023/09/25 04:43:32;;;;;;;3.30;3.00;;;14.40;53.30;;;;;;5044447;28;20444;-45
2023/09/25 04:45:58;;;;;;;4.23;3.07;;;14.40;53.40;;;;;;5026718;28;20700;-45
2023/09/25 04:48:24;;;;;;;3.63;2.63;;;14.40;53.30;;;;;;5027734;28;20440;-44
2023/09/25 04:50:50;;;;;;;3.60;2.70;;;14.30;53.30;;;;;;5023866;28;20501;-46
2023/09/25 04:53:16;;;;;;;3.43;2.33;;;14.30;53.30;;;;;;5024972;28;20447;-49
2023/09/25 04:55:41;;;;;;;5.57;2.63;;;14.30;53.30;;;;;;5024339;28;20479;-46
2023/09/25 04:58:07;;;;;;;5.13;3.13;;;14.30;53.50;;;;;;5025825;28;20292;-47
2023/09/25 05:00:33;;;;;;;3.87;2.83;;;14.20;53.50;;;;;;5023606;28;20275;-45
2023/09/25 05:03:00;;;;;;;3.23;2.90;;;14.20;53.60;;;;;;5024993;28;20443;-46
2023/09/25 05:05:26;;;;;;;5.23;2.63;;;14.20;54.30;;;;;;5034786;28;20215;-47
2023/09/25 05:07:54;;;;;;;4.07;2.90;;;14.30;53.90;;;;;;5032339;28;20446;-49
2023/09/25 05:10:27;;;;;;;3.60;2.70;;;14.30;54.00;;;;;;5044734;28;20501;-45
2023/09/25 05:12:54;;;;;;;4.60;2.40;;;14.30;54.10;;;;;;5035919;28;20814;-47
2023/09/25 05:15:20;;;;;;;3.70;2.90;;;14.20;54.10;;;;;;5021293;28;20483;-47
2023/09/25 05:17:46;;;;;;;5.77;3.47;;;14.20;54.20;;;;;;5022358;28;20436;-45
2023/09/25 05:20:18;;;;;;;3.17;2.87;;;14.20;54.30;;;;;;5033946;28;20452;-46
2023/09/25 05:22:46;;;;;;;2.93;2.50;;;14.30;54.30;;;;;;5045072;28;20488;-44
2023/09/25 05:25:12;;;;;;;5.20;3.40;;;14.40;54.10;;;;;;5026528;28;20448;-44
2023/09/25 05:27:40;;;;;;;6.03;3.40;;;14.40;53.70;;;;;;5023213;28;20445;-44
2023/09/25 05:30:09;;;;;;;4.30;2.93;;;14.40;53.70;;;;;;5025211;28;20455;-45
2023/09/25 05:32:35;;;;;;;3.40;2.67;;;14.50;53.80;;;;;;5027331;28;20543;-43
2023/09/25 05:35:01;;;;;;;4.03;3.10;;;14.40;53.90;;;;;;5022682;28;20987;-45
2023/09/25 05:37:27;;;;;;;3.67;3.37;;;14.40;54.10;;;;;;5028763;28;20490;-45
2023/09/25 05:39:52;;;;;;;3.43;3.07;;;14.40;54.10;;;;;;5026682;28;20807;-43
2023/09/25 05:42:18;;;;;;;4.37;3.40;;;14.40;54.20;;;;;;5038747;28;20241;-43
2023/09/25 05:44:44;;;;;;;4.37;3.60;;;14.40;54.30;;;;;;5031204;28;20264;-43
2023/09/25 05:47:09;;;;;;;3.90;3.10;;;14.40;54.60;;;;;;5029926;28;20252;-46
2023/09/25 05:49:35;;;;;;;5.83;3.30;;;14.40;54.50;;;;;;5036412;28;20201;-44
2023/09/25 05:52:00;;;;;;;4.60;3.13;;;14.50;54.60;;;;;;5022937;28;20248;-44
2023/09/25 05:54:26;;;;;;;4.00;3.33;;;14.60;54.60;;;;;;5029024;28;20197;-45
2023/09/25 05:56:52;;;;;;;6.20;3.77;;;14.70;54.60;;;;;;5038268;28;21235;-46
2023/09/25 05:59:18;;;;;;;5.40;3.20;;;14.80;54.60;;;;;;5040742;28;20279;-44
2023/09/25 06:01:44;;;;;;;4.10;3.10;;;14.90;54.50;;;;;;5027956;28;20198;-44
2023/09/25 06:04:10;;;;;;;5.40;3.13;;;15.10;54.50;;;;;;5028699;28;20571;-45
2023/09/25 06:06:36;;;;;;;5.33;3.40;;;15.20;54.30;;;;;;5030561;28;20197;-44
2023/09/25 06:09:02;;;;;;;4.43;3.50;;;15.30;53.90;;;;;;5032865;28;20466;-44
2023/09/25 06:11:28;;;;;;;5.17;3.60;;;15.40;53.60;;;;;;5030213;28;20280;-43
2023/09/25 06:13:54;;;;;;;6.17;3.33;;;15.50;53.50;;;;;;5028920;28;20523;-45
2023/09/25 06:16:19;;;;;;;4.57;2.93;;;15.60;53.50;;;;;;5028060;28;20311;-44
2023/09/25 06:18:46;;;;;;;3.50;3.20;;;15.70;53.20;;;;;;5029268;28;20255;-44
2023/09/25 06:21:13;;;;;;;5.07;3.07;;;15.90;53.00;;;;;;5038337;28;20224;-44
2023/09/25 06:23:39;;;;;;;3.50;3.20;;;16.00;52.80;;;;;;5023892;28;20531;-44
2023/09/25 06:26:06;;;;;;;6.67;3.60;;;16.10;52.40;;;;;;5028389;28;20927;-46
2023/09/25 06:28:32;;;;;;;3.97;3.60;;;16.30;52.50;;;;;;5028835;28;20440;-46
2023/09/25 06:30:59;;;;;;;3.87;2.97;;;16.40;52.10;;;;;;5029871;28;20872;-44
2023/09/25 06:33:25;;;;;;;7.17;3.90;;;16.60;51.90;;;;;;5043908;28;20443;-45
2023/09/25 06:35:52;;;;;;;3.23;2.80;;;16.70;51.70;;;;;;5030548;28;20530;-45
2023/09/25 06:38:18;;;;;;;5.00;3.50;;;16.90;51.50;;;;;;5029750;28;20435;-44
2023/09/25 06:40:44;;;;;;;5.67;3.20;;;17.10;51.20;;;;;;5054736;28;20442;-44
2023/09/25 06:43:10;;;;;;;4.00;2.83;;;17.30;50.80;;;;;;5050965;28;20216;-44
2023/09/25 06:45:36;;;;;;;3.70;3.30;;;17.50;50.60;;;;;;5054977;28;20471;-45
2023/09/25 06:48:01;;;;;;;4.73;3.37;;;17.60;50.40;;;;;;5044122;28;20439;-43
2023/09/25 06:50:27;;;;;;;3.80;3.17;;;17.80;50.00;;;;;;5035066;28;20712;-43
2023/09/25 06:52:53;;;;;;;5.17;3.37;;;18.00;49.70;;;;;;5052303;28;20250;-44
2023/09/25 06:55:18;;;;;;;6.60;3.43;;;18.20;49.20;;;;;;5045669;28;20224;-46
2023/09/25 06:57:44;;;;;;;3.43;3.13;;;18.40;49.10;;;;;;5042243;28;20652;-44
2023/09/25 07:00:11;;;;;;;3.53;3.10;;;18.60;49.00;;;;;;5040060;28;20193;-43
2023/09/25 07:02:36;;;;;;;5.13;3.97;;;18.80;48.60;;;;;;5052480;28;20471;-50
2023/09/25 07:05:02;;;;;;;4.00;3.40;;;18.90;48.20;;;;;;5038375;28;20557;-44
2023/09/25 07:07:28;;;;;;;4.10;3.20;;;19.00;48.00;;;;;;5043930;28;20600;-44
2023/09/25 07:09:54;;;;;;;4.87;3.70;;;19.20;47.90;;;;;;5040711;28;20866;-45
2023/09/25 07:12:19;;;;;;;3.93;3.33;;;19.40;47.80;;;;;;5048277;28;20439;-44
2023/09/25 07:14:55;;;;;;;4.87;3.70;;;19.50;47.90;;;;;;5035422;28;20224;-44
2023/09/25 07:17:22;;;;;;;4.93;4.03;;;19.50;47.40;;;;;;5032311;28;20550;-44
2023/09/25 07:19:55;;;;;;;6.73;3.93;;;19.60;47.10;;;;;;5042526;28;20476;-46
2023/09/25 07:22:21;;;;;;;3.87;3.33;;;19.80;46.80;;;;;;5050450;28;20427;-46
2023/09/25 07:24:47;;;;;;;6.30;3.73;;;19.90;46.40;;;;;;5049757;28;20445;-45
2023/09/25 07:27:13;;;;;;;5.20;3.77;;;20.00;46.50;;;;;;5045828;28;20488;-44
2023/09/25 07:29:45;;;;;;;4.13;3.50;;;20.00;47.40;;;;;;5041363;28;20439;-45
2023/09/25 07:32:12;;;;;;;11.20;4.10;;;20.00;46.80;;;;;;5054377;28;20423;-44
2023/09/25 07:34:42;;;;;;;4.63;3.30;;;20.10;46.60;;;;;;5044259;28;20874;-44
2023/09/25 07:37:08;;;;;;;4.27;3.43;;;20.30;46.50;;;;;;5031331;28;20815;-44
2023/09/25 07:39:34;;;;;;;7.30;3.10;;;20.40;46.60;;;;;;5030973;28;20436;-47
2023/09/25 07:42:01;;;;;;;3.90;3.50;;;20.40;47.50;;;;;;5027663;28;20193;-48
2023/09/25 07:44:27;;;;;;;5.10;3.60;;;20.50;46.80;;;;;;5021694;28;20475;-47
2023/09/25 07:46:57;;;;;;;15.43;3.87;;;20.60;46.70;;;;;;5039048;28;20882;-44
2023/09/25 07:49:23;;;;;;;3.93;3.17;;;20.70;46.90;;;;;;5036140;28;20239;-45
2023/09/25 07:51:51;;;;;;;4.83;3.30;;;20.80;46.70;;;;;;5031087;28;20466;-45
2023/09/25 07:54:17;;;;;;;4.47;3.00;;;20.80;46.40;;;;;;5029429;28;20459;-44
2023/09/25 07:56:43;;;;;;;3.37;3.07;;;20.90;46.40;;;;;;5029578;28;20480;-45
2023/09/25 07:59:10;;;;;;;4.33;3.10;;;20.90;46.30;;;;;;5012492;28;20443;-46
2023/09/25 08:01:39;;;;;;;3.80;3.30;;;20.90;46.90;;;;;;5016431;28;20594;-49
2023/09/25 08:04:05;;;;;;;10.23;3.70;;;21.00;47.00;;;;;;5042131;28;20897;-48
2023/09/25 08:06:31;;;;;;;7.93;3.60;;;21.00;47.00;;;;;;5031032;28;20923;-45
2023/09/25 08:08:57;;;;;;;4.13;3.63;;;21.10;46.80;;;;;;5030188;28;20446;-45
2023/09/25 08:11:24;;;;;;;7.90;4.20;;;21.10;46.70;;;;;;5035954;28;20212;-47
2023/09/25 08:13:50;;;;;;;7.40;3.63;;;21.10;46.70;;;;;;5034392;28;20448;-47
2023/09/25 08:16:18;;;;;;;3.77;3.37;;;21.20;46.50;;;;;;5026517;28;21034;-46
2023/09/25 08:18:43;;;;;;;3.87;3.40;;;21.30;46.70;;;;;;5023852;28;20494;-48
2023/09/25 08:21:09;;;;;;;3.90;3.47;;;21.20;46.70;;;;;;5040901;28;20474;-48
2023/09/25 08:23:35;;;;;;;7.43;3.90;;;21.20;47.20;;;;;;5033272;28;20296;-47
2023/09/25 08:26:05;;;;;;;4.50;3.43;;;21.40;47.50;;;;;;5029108;28;20539;-45
2023/09/25 08:28:31;;;;;;;4.27;3.20;;;21.50;47.10;;;;;;5034726;28;20460;-46
2023/09/25 08:30:56;;;;;;;3.80;3.10;;;21.60;47.00;;;;;;5028087;28;20476;-45
2023/09/25 08:33:22;;;;;;;3.20;2.83;;;21.80;46.50;;;;;;5026760;28;20436;-49
2023/09/25 08:35:48;;;;;;;4.10;3.07;;;21.90;46.10;;;;;;5028947;28;20231;-47
2023/09/25 08:38:14;;;;;;;3.63;2.70;;;21.90;46.80;;;;;;5028215;28;20232;-45
2023/09/25 08:40:47;;;;;;;3.43;3.00;;;22.00;46.10;;;;;;5029332;28;20221;-44
2023/09/25 08:43:13;;;;;;;3.57;2.70;;;22.00;45.80;;;;;;5043469;28;20193;-46
2023/09/25 08:45:40;;;;;;;2.60;2.20;;;22.10;45.90;;;;;;5031590;28;20966;-45
2023/09/25 08:48:08;;;;;;;2.40;2.20;;;22.30;45.90;;;;;;5039685;28;20522;-45
2023/09/25 08:50:34;;;;;;;2.80;2.60;;;22.40;46.10;;;;;;5038472;28;20443;-45
2023/09/25 08:52:59;;;;;;;3.80;2.40;;;22.50;45.50;;;;;;5032838;28;21009;-50
2023/09/25 08:55:26;;;;;;;2.80;2.60;;;22.40;45.20;;;;;;5050196;28;20235;-46
2023/09/25 08:57:52;;;;;;;5.07;2.57;;;22.60;44.80;;;;;;5030325;28;20698;-47
2023/09/25 09:00:18;;;;;;;2.47;2.27;;;22.60;44.90;;;;;;5039411;28;20569;-45
2023/09/25 09:02:43;;;;;;;3.73;2.20;;;22.70;44.50;;;;;;5051929;28;20510;-46
2023/09/25 09:05:16;;;;;;;4.30;2.53;;;22.60;44.10;;;;;;5038525;28;20197;-46
2023/09/25 09:08:03;;;;;;;3.00;2.50;;;22.50;44.40;;;;;;5032197;28;20193;-45
2023/09/25 09:10:33;;;;;;;2.50;2.20;;;22.60;44.60;;;;;;5040088;28;20967;-45
2023/09/25 09:13:01;;;;;;;3.87;2.10;;;23.00;43.80;;;;;;5041929;28;20480;-45
2023/09/25 09:15:29;;;;;;;3.53;2.30;;;23.40;44.50;;;;;;5030239;28;21055;-45
2023/09/25 09:17:55;;;;;;;4.67;2.43;;;23.60;42.80;;;;;;5034372;28;20447;-46
2023/09/25 09:20:36;;;;;;;3.10;2.33;;;23.90;43.60;;;;;;5026505;28;20436;-47
2023/09/25 09:23:02;;;;;;;3.10;2.30;;;23.90;42.00;;;;;;5047633;28;20508;-46
2023/09/25 09:25:29;;;;;;;2.43;2.07;;;24.10;42.60;;;;;;5035999;28;20452;-46
2023/09/25 09:27:58;;;;;;;2.40;2.03;;;24.20;42.30;;;;;;5026647;28;20213;-49
2023/09/25 09:30:25;;;;;;;2.60;2.00;;;24.50;41.40;;;;;;5028016;28;20943;-46
2023/09/25 09:32:51;;;;;;;3.10;2.50;;;24.60;41.40;;;;;;5030250;28;20448;-52
2023/09/25 09:35:25;;;;;;;2.40;2.20;;;24.60;40.10;;;;;;5028226;28;20476;-48
2023/09/25 09:37:57;;;;;;;2.50;2.30;;;24.80;40.40;;;;;;5029054;28;20510;-47
2023/09/25 09:40:27;;;;;;;5.27;2.27;;;24.70;40.50;;;;;;5031463;28;20460;-49
2023/09/25 09:42:53;;;;;;;6.73;3.30;;;24.80;40.20;;;;;;5034712;28;20456;-51
2023/09/25 09:45:19;;;;;;;4.90;2.30;;;25.10;40.70;;;;;;5027613;28;20476;-49
2023/09/25 09:47:47;;;;;;;9.47;2.50;;;25.40;40.70;;;;;;5037309;28;20764;-47
2023/09/25 09:50:17;;;;;;;2.90;2.30;;;25.50;40.10;;;;;;5026454;28;20795;-47
2023/09/25 09:52:44;;;;;;;5.90;2.30;;;25.60;38.90;;;;;;5041728;28;20431;-46
2023/09/25 09:55:12;;;;;;;2.57;2.20;;;25.70;39.10;;;;;;5034774;28;20814;-47
2023/09/25 09:57:38;;;;;;;4.87;2.27;;;25.80;38.60;;;;;;5038530;28;20452;-47
2023/09/25 10:00:06;;;;;;;2.50;2.30;;;25.90;37.80;;;;;;5020799;28;20443;-47
2023/09/25 10:02:31;;;;;;;2.07;1.87;;;25.90;38.00;;;;;;5020964;28;20980;-48
2023/09/25 10:04:58;;;;;;;2.80;1.90;;;26.20;38.10;;;;;;5025853;28;20532;-48
2023/09/25 10:07:23;;;;;;;2.97;2.00;;;26.40;37.50;;;;;;5024095;28;20193;-52
2023/09/25 10:10:04;;;;;;;2.30;2.10;;;26.40;36.90;;;;;;5026956;28;20446;-46
2023/09/25 10:12:49;;;;;;;2.77;2.10;;;26.50;37.30;;;;;;5032144;28;20242;-48
2023/09/25 10:15:23;;;;;;;2.73;2.00;;;26.80;37.60;;;;;;5026473;28;20471;-47
2023/09/25 10:17:49;;;;;;;2.70;2.10;;;26.90;35.90;;;;;;5043218;28;20883;-47
2023/09/25 10:20:36;;;;;;;2.23;2.03;;;27.00;36.00;;;;;;5045392;28;20474;-51
2023/09/25 10:23:09;;;;;;;4.00;1.73;;;27.20;35.50;;;;;;5021502;28;20193;-48
2023/09/25 10:25:46;;;;;;;2.27;1.90;;;27.20;35.10;;;;;;5028727;28;20459;-49
2023/09/25 10:28:24;;;;;;;3.00;1.60;;;27.30;35.10;;;;;;5035881;28;20450;-48
2023/09/25 10:30:51;;;;;;;3.07;2.17;;;27.50;35.00;;;;;;5032224;28;20513;-47
2023/09/25 10:33:18;;;;;;;2.30;2.00;;;27.60;34.60;;;;;;5031142;28;20619;-47
2023/09/25 10:35:47;;;;;;;2.37;2.17;;;27.80;34.70;;;;;;5029447;28;20478;-46
2023/09/25 10:38:19;;;;;;;2.40;1.80;;;27.90;35.00;;;;;;5027253;28;20870;-50
2023/09/25 10:40:50;;;;;;;3.63;2.33;;;28.10;33.80;;;;;;5025067;28;20811;-48
2023/09/25 10:43:23;;;;;;;2.60;2.40;;;28.00;34.00;;;;;;5031894;28;20444;-48
2023/09/25 10:45:50;;;;;;;2.90;2.60;;;28.20;33.90;;;;;;5023184;28;21120;-51
2023/09/25 10:48:16;;;;;;;3.20;2.80;;;27.90;33.50;;;;;;5020548;28;20946;-49
2023/09/25 10:50:43;;;;;;;2.47;2.10;;;27.90;33.80;;;;;;5026752;28;20523;-46
2023/09/25 10:53:10;;;;;;;5.33;2.70;;;28.10;33.00;;;;;;5046295;28;20423;-50
2023/09/25 10:55:36;;;;;;;3.60;2.60;;;28.50;35.40;;;;;;5028052;28;20574;-49
2023/09/25 10:58:03;;;;;;;2.43;2.23;;;28.70;34.10;;;;;;5025663;28;20515;-48
2023/09/25 11:00:29;;;;;;;2.80;2.40;;;29.00;33.20;;;;;;5030860;28;20193;-46
2023/09/25 11:02:56;;;;;;;2.27;2.07;;;29.10;32.30;;;;;;5032159;28;20431;-49
2023/09/25 11:05:22;;;;;;;2.33;2.13;;;29.10;31.60;;;;;;5034428;28;20224;-51
2023/09/25 11:07:48;;;;;;;2.20;1.93;;;29.10;31.20;;;;;;5033896;28;20450;-49
2023/09/25 11:10:14;;;;;;;2.20;2.00;;;29.20;32.10;;;;;;5029191;28;20436;-47
2023/09/25 11:12:40;;;;;;;2.87;1.80;;;29.20;31.90;;;;;;5033519;28;20201;-52
2023/09/25 11:15:13;;;;;;;2.23;2.03;;;29.10;31.20;;;;;;5039066;28;21291;-49
2023/09/25 11:17:39;;;;;;;3.93;2.40;;;29.10;30.60;;;;;;5032414;28;20459;-48
2023/09/25 11:20:18;;;;;;;2.87;2.20;;;29.30;33.00;;;;;;5048778;28;20420;-48
2023/09/25 11:22:44;;;;;;;2.60;2.17;;;29.50;30.90;;;;;;5031108;28;20448;-50
2023/09/25 11:25:16;;;;;;;2.73;2.30;;;29.30;31.80;;;;;;5037589;28;20454;-50
2023/09/25 11:27:53;;;;;;;2.63;1.70;;;29.40;32.20;;;;;;5042317;28;20942;-50
2023/09/25 11:30:19;;;;;;;3.87;2.77;;;29.70;30.90;;;;;;5050244;28;20905;-49
2023/09/25 11:32:45;;;;;;;2.30;2.00;;;29.80;30.50;;;;;;5036391;28;20968;-46
2023/09/25 11:35:12;;;;;;;1.87;1.77;;;28.70;29.90;;;;;;5029324;28;20495;-49
2023/09/25 11:38:00;;;;;;;2.10;1.90;;;27.90;32.40;;;;;;5036230;28;20443;-48
2023/09/25 11:40:26;;;;;;;3.07;2.07;;;28.30;31.80;;;;;;5044649;28;20801;-48
2023/09/25 11:42:53;;;;;;;1.67;1.57;;;28.80;34.00;;;;;;5047667;28;20440;-52
2023/09/25 11:45:19;;;;;;;2.33;1.93;;;29.10;31.40;;;;;;5035473;28;20479;-51
2023/09/25 11:47:45;;;;;;;2.23;1.87;;;29.10;30.60;;;;;;5036708;28;20456;-51
2023/09/25 11:50:13;;;;;;;2.43;1.90;;;29.50;30.40;;;;;;5034992;28;20466;-53
2023/09/25 11:52:40;;;;;;;2.47;2.27;;;29.90;30.00;;;;;;5042069;28;20447;-53
2023/09/25 11:55:09;;;;;;;3.17;2.20;;;29.70;30.10;;;;;;5036025;28;20439;-46
2023/09/25 11:57:35;;;;;;;10.77;2.07;;;29.80;30.10;;;;;;5035909;28;21170;-48
2023/09/25 12:00:04;;;;;;;3.00;2.27;;;30.10;30.30;;;;;;5041648;28;20420;-49
2023/09/25 12:02:30;;;;;;;1.90;1.80;;;29.40;30.00;;;;;;5037956;28;20954;-49
2023/09/25 12:04:56;;;;;;;2.27;2.07;;;29.10;30.60;;;;;;5033601;28;20533;-50
2023/09/25 12:07:21;;;;;;;1.70;1.60;;;29.40;33.40;;;;;;5027222;28;20532;-52
2023/09/25 12:09:48;;;;;;;2.80;1.60;;;29.60;30.40;;;;;;5034526;28;20263;-49
2023/09/25 12:12:14;;;;;;;2.10;1.90;;;30.10;29.80;;;;;;5034902;28;20691;-47
2023/09/25 12:14:40;;;;;;;2.13;1.90;;;30.10;29.90;;;;;;5031244;28;20436;-52
2023/09/25 12:17:07;;;;;;;2.20;2.00;;;30.00;28.80;;;;;;5026332;28;20315;-51
2023/09/25 12:19:33;;;;;;;2.00;1.80;;;29.70;28.80;;;;;;5029388;28;20446;-51
2023/09/25 12:21:59;;;;;;;1.90;1.80;;;29.50;30.50;;;;;;5029414;28;20443;-52
2023/09/25 12:24:25;;;;;;;1.80;1.70;;;29.70;30.50;;;;;;5039933;28;20446;-50
2023/09/25 12:26:50;;;;;;;2.20;2.00;;;29.80;29.90;;;;;;5027749;28;20915;-50
2023/09/25 12:29:17;;;;;;;3.33;1.80;;;30.20;30.30;;;;;;5022041;28;20197;-51
2023/09/25 12:31:43;;;;;;;2.27;2.07;;;30.10;29.60;;;;;;5025687;28;20247;-49
2023/09/25 12:34:08;;;;;;;2.27;1.73;;;30.30;29.20;;;;;;5029714;28;20440;-48
2023/09/25 12:36:34;;;;;;;2.00;1.90;;;30.50;29.10;;;;;;5030859;28;20228;-49
2023/09/25 12:38:59;;;;;;;2.03;1.90;;;30.50;29.80;;;;;;5031723;28;20661;-50
2023/09/25 12:41:25;;;;;;;3.53;2.23;;;30.90;29.50;;;;;;5023903;28;20213;-48
2023/09/25 12:43:51;;;;;;;3.30;2.20;;;30.70;28.40;;;;;;5025040;28;20736;-47